createdAt,value
2022-11-26T00:03:37.319Z,8.00
2022-11-26T00:06:23.435Z,7.90
2022-11-26T00:14:47.574Z,7.70
2022-11-26T00:17:56.614Z,7.60
2022-11-26T00:26:26.241Z,7.60
2022-11-26T00:31:46.473Z,7.50
2022-11-26T00:34:18.679Z,7.40
2022-11-26T00:39:36.655Z,7.40
2022-11-26T00:42:10.968Z,7.40
2022-11-26T00:44:48.046Z,7.40
2022-11-26T00:47:31.364Z,7.30
2022-11-26T00:50:16.175Z,7.30
2022-11-26T00:52:46.394Z,7.30
2022-11-26T00:55:32.568Z,7.20
2022-11-26T00:58:03.490Z,7.20
2022-11-26T01:00:49.146Z,7.20
2022-11-26T01:03:22.303Z,7.40
2022-11-26T01:05:59.603Z,7.20
2022-11-26T01:08:37.214Z,7.30
2022-11-26T01:11:09.127Z,7.30
2022-11-26T01:13:43.618Z,7.30
2022-11-26T01:16:26.340Z,7.40
2022-11-26T01:19:11.440Z,7.30
2022-11-26T01:21:45.043Z,7.30
2022-11-26T01:24:16.315Z,7.20
2022-11-26T01:26:51.380Z,7.30
2022-11-26T01:29:25.792Z,7.30
2022-11-26T01:31:55.377Z,7.10
2022-11-26T01:34:26.509Z,7.30
2022-11-26T01:36:57.657Z,7.30
2022-11-26T01:39:30.915Z,7.30
2022-11-26T01:42:11.349Z,7.30
2022-11-26T01:44:42.894Z,7.20
2022-11-26T01:47:32.701Z,7.20
2022-11-26T01:50:55.434Z,8.00
2022-11-26T01:53:34.183Z,7.10
2022-11-26T01:56:07.603Z,7.10
2022-11-26T01:58:45.320Z,7.40
2022-11-26T02:01:14.498Z,7.10
2022-11-26T02:03:50.175Z,7.00
2022-11-26T02:06:26.224Z,7.10
2022-11-26T02:09:07.062Z,7.10
2022-11-26T02:11:39.593Z,7.00
2022-11-26T02:14:14.248Z,7.00
2022-11-26T02:17:16.594Z,7.00
2022-11-26T02:20:23.860Z,7.00
2022-11-26T02:23:25.665Z,6.90
2022-11-26T02:26:22.484Z,7.60
2022-11-26T02:29:21.617Z,6.90
2022-11-26T02:32:00.524Z,6.80
2022-11-26T02:34:37.934Z,6.80
2022-11-26T02:37:12.713Z,6.80
2022-11-26T02:42:27.204Z,6.90
2022-11-26T02:47:46.160Z,6.90
2022-11-26T02:50:21.759Z,6.90
2022-11-26T02:53:06.148Z,6.80
2022-11-26T02:55:40.132Z,6.80
2022-11-26T02:58:09.498Z,6.80
2022-11-26T03:00:44.827Z,6.80
2022-11-26T03:03:26.452Z,6.80
2022-11-26T03:06:00.318Z,6.80
2022-11-26T03:08:33.138Z,6.80
2022-11-26T03:11:05.851Z,6.70
